Time;durP1;ratioP1;P1;durP2;ratioP2;P2;SDS_P1;SDS_P2;PMS_P1;PMS_P2;Temp;Humidity;BMP_temperature;BMP_pressure;BME280_temperature;BME280_humidity;BME280_pressure;Samples;Min_cycle;Max_cycle;Signal;HPM_P1;HPM_P2
2023/05/04 00:00:01;;;;;;;1999.90;999.90;;;28.50;72.00;;;;;;5031994;28;20033;-70
2023/05/04 00:02:28;;;;;;;1999.90;999.90;;;28.70;71.50;;;;;;5034156;28;20060;-71
2023/05/04 00:04:55;;;;;;;1999.90;999.90;;;29.10;71.50;;;;;;5036732;28;20064;-71
2023/05/04 00:07:23;;;;;;;1999.90;999.90;;;29.00;70.30;;;;;;5033690;28;20526;-70
2023/05/04 00:09:50;;;;;;;1999.90;999.90;;;29.00;70.40;;;;;;5039162;28;20037;-69
2023/05/04 00:12:18;;;;;;;1999.90;999.90;;;28.90;70.00;;;;;;5037016;28;20120;-70
2023/05/04 00:14:45;;;;;;;1999.90;999.90;;;29.40;69.10;;;;;;5040017;28;20063;-70
2023/05/04 00:17:12;;;;;;;1999.90;999.90;;;29.30;69.80;;;;;;5038647;28;20509;-70
2023/05/04 00:19:41;;;;;;;1999.90;999.90;;;29.60;68.40;;;;;;5037413;28;20033;-70
2023/05/04 00:22:08;;;;;;;1999.90;999.90;;;29.60;68.60;;;;;;5039480;28;20052;-71
2023/05/04 00:24:35;;;;;;;1999.90;999.90;;;29.70;68.90;;;;;;5042457;28;20023;-71
2023/05/04 00:27:03;;;;;;;1999.90;999.90;;;29.80;69.40;;;;;;5035000;28;20036;-69
2023/05/04 00:29:30;;;;;;;1999.90;999.90;;;30.00;68.70;;;;;;5042219;28;20056;-71
2023/05/04 00:31:58;;;;;;;1999.90;999.90;;;30.20;68.60;;;;;;5038827;28;20075;-71
2023/05/04 00:34:25;;;;;;;1999.90;999.90;;;30.20;68.20;;;;;;5038665;28;20048;-72
2023/05/04 00:36:53;;;;;;;1999.90;999.90;;;30.20;68.40;;;;;;5054577;28;20047;-71
2023/05/04 00:39:20;;;;;;;1999.90;999.90;;;30.40;68.90;;;;;;5043714;28;20085;-72
2023/05/04 00:41:49;;;;;;;1999.90;999.90;;;30.60;67.40;;;;;;5053645;28;20052;-71
2023/05/04 00:44:16;;;;;;;1999.90;999.90;;;30.60;67.70;;;;;;5041483;28;20037;-72
2023/05/04 00:46:43;;;;;;;1999.90;999.90;;;30.80;68.20;;;;;;5046084;28;20032;-71
2023/05/04 00:49:11;;;;;;;1999.90;999.90;;;30.80;67.30;;;;;;5047433;28;21233;-71
2023/05/04 00:51:39;;;;;;;1999.90;999.90;;;30.50;68.30;;;;;;5043849;28;20433;-71
2023/05/04 00:54:07;;;;;;;1999.90;999.90;;;30.50;68.60;;;;;;5043340;28;20032;-71
2023/05/04 00:56:40;;;;;;;1999.90;999.90;;;30.60;67.90;;;;;;5051202;28;20044;-72
2023/05/04 00:59:08;;;;;;;1999.90;999.90;;;30.70;68.80;;;;;;5041151;28;20035;-71
2023/05/04 01:01:35;;;;;;;1999.90;999.90;;;30.80;68.20;;;;;;5051223;28;20172;-69
2023/05/04 01:04:04;;;;;;;1999.90;999.90;;;30.90;68.00;;;;;;5042318;28;20033;-70
2023/05/04 01:06:41;;;;;;;1999.90;999.90;;;31.00;67.90;;;;;;5051077;28;20028;-72
2023/05/04 01:09:36;;;;;;;1999.90;999.90;;;31.20;67.80;;;;;;5035348;28;20132;-71
2023/05/04 01:12:27;;;;;;;1999.90;999.90;;;31.00;67.50;;;;;;5048467;28;20732;-71
2023/05/04 01:14:55;;;;;;;1999.90;999.90;;;30.90;67.50;;;;;;5042841;28;20024;-71
2023/05/04 01:17:23;;;;;;;1999.90;999.90;;;30.80;68.60;;;;;;5043673;28;20028;-72
2023/05/04 01:19:52;;;;;;;1999.90;999.90;;;30.90;68.40;;;;;;5035418;28;20074;-72
2023/05/04 01:22:21;;;;;;;1999.90;999.90;;;31.00;67.50;;;;;;5045546;28;20036;-72
2023/05/04 01:24:49;;;;;;;1999.90;999.90;;;30.80;67.40;;;;;;5041457;28;20032;-72
2023/05/04 01:27:51;;;;;;;1999.90;999.90;;;31.10;67.70;;;;;;5033528;28;20052;-71
2023/05/04 01:30:46;;;;;;;1999.90;999.90;;;31.10;67.90;;;;;;5046158;28;20195;-72
2023/05/04 01:33:15;;;;;;;1999.90;999.90;;;31.00;67.60;;;;;;5042520;28;20021;-71
2023/05/04 01:35:42;;;;;;;1999.90;999.90;;;31.20;67.00;;;;;;5030427;28;20032;-72
2023/05/04 01:38:10;;;;;;;1999.90;999.90;;;31.10;67.00;;;;;;5039195;28;20678;-72
2023/05/04 01:40:37;;;;;;;1999.90;999.90;;;31.10;68.40;;;;;;5039661;28;22101;-72
2023/05/04 01:43:04;;;;;;;1999.90;999.90;;;31.10;68.20;;;;;;5048052;28;20039;-71
2023/05/04 01:45:32;;;;;;;1999.90;999.90;;;31.10;67.80;;;;;;5031838;28;20033;-70
2023/05/04 01:47:59;;;;;;;1999.90;999.90;;;30.90;67.90;;;;;;5036103;28;20091;-69
2023/05/04 01:50:27;;;;;;;1999.90;999.90;;;30.70;67.40;;;;;;5038690;28;20037;-70
2023/05/04 01:52:54;;;;;;;1999.90;999.90;;;30.50;67.90;;;;;;5042990;28;20025;-70
2023/05/04 01:55:21;;;;;;;1999.90;999.90;;;30.40;68.10;;;;;;5045762;28;20479;-70
2023/05/04 01:57:49;;;;;;;1999.90;999.90;;;30.20;67.80;;;;;;5045036;28;20064;-70
2023/05/04 02:00:16;;;;;;;1999.90;999.90;;;30.30;67.70;;;;;;5046337;28;20025;-71
2023/05/04 02:02:44;;;;;;;1999.90;999.90;;;30.20;68.40;;;;;;5045970;28;20387;-71
2023/05/04 02:05:11;;;;;;;1999.90;999.90;;;30.10;68.30;;;;;;5026825;28;20025;-71
2023/05/04 02:07:39;;;;;;;1999.90;999.90;;;30.10;67.10;;;;;;5033235;28;20033;-71
2023/05/04 02:10:07;;;;;;;1999.90;999.90;;;30.10;68.20;;;;;;5045066;28;20140;-71
2023/05/04 02:12:35;;;;;;;1999.90;999.90;;;29.90;67.10;;;;;;5051923;28;20028;-71
2023/05/04 02:15:02;;;;;;;1999.90;999.90;;;29.70;68.30;;;;;;5040704;28;20025;-73
2023/05/04 02:17:30;;;;;;;1999.90;999.90;;;29.60;69.10;;;;;;5028500;28;20543;-71
2023/05/04 02:19:57;;;;;;;1999.90;999.90;;;29.20;68.40;;;;;;5041424;28;20085;-71
2023/05/04 02:22:25;;;;;;;1999.90;999.90;;;28.90;69.00;;;;;;5047835;28;20029;-71
2023/05/04 02:24:53;;;;;;;1999.90;999.90;;;28.70;69.20;;;;;;5035074;28;20480;-73
2023/05/04 02:27:20;;;;;;;1999.90;999.90;;;28.40;69.40;;;;;;5051065;28;20055;-72
2023/05/04 02:29:49;;;;;;;1999.90;999.90;;;28.40;70.00;;;;;;5040119;28;20049;-73
2023/05/04 02:32:17;;;;;;;1999.90;999.90;;;28.40;69.70;;;;;;5058888;28;20021;-71
2023/05/04 02:34:44;;;;;;;1999.90;999.90;;;28.50;69.90;;;;;;5047208;28;20411;-72
2023/05/04 02:37:11;;;;;;;1999.90;999.90;;;28.60;71.70;;;;;;5047489;28;20028;-74
2023/05/04 02:39:39;;;;;;;1999.90;999.90;;;28.50;69.80;;;;;;5038617;28;20064;-73
2023/05/04 02:42:06;;;;;;;1999.90;999.90;;;28.40;70.20;;;;;;5044688;28;20022;-73
2023/05/04 02:44:33;;;;;;;1999.90;999.90;;;28.30;70.50;;;;;;5039884;28;20154;-73
2023/05/04 02:47:01;;;;;;;1999.90;999.90;;;28.10;70.70;;;;;;5041402;28;20085;-70
2023/05/04 02:49:28;;;;;;;1999.90;999.90;;;27.70;68.90;;;;;;5043029;28;20067;-71
2023/05/04 02:51:55;;;;;;;1999.90;999.90;;;27.70;70.30;;;;;;5049499;28;20029;-72
2023/05/04 02:54:23;;;;;;;1999.90;999.90;;;27.60;71.60;;;;;;5047234;28;20037;-72
2023/05/04 02:56:50;;;;;;;1999.90;999.90;;;27.60;70.80;;;;;;5040427;28;20025;-71
2023/05/04 02:59:18;;;;;;;1999.90;999.90;;;27.60;70.50;;;;;;5040658;28;20256;-71
2023/05/04 03:01:45;;;;;;;1999.90;999.90;;;27.60;70.80;;;;;;5039303;28;20056;-71
2023/05/04 03:04:13;;;;;;;1999.90;999.90;;;27.50;70.70;;;;;;5034460;28;20021;-69
2023/05/04 03:06:40;;;;;;;1999.90;999.90;;;27.40;71.00;;;;;;5041014;28;20033;-72
2023/05/04 03:09:08;;;;;;;1999.90;999.90;;;27.30;72.20;;;;;;5045360;28;20124;-71
2023/05/04 03:11:36;;;;;;;1999.90;999.90;;;27.30;72.20;;;;;;5049411;28;21304;-71
2023/05/04 03:14:03;;;;;;;1999.90;999.90;;;27.30;71.90;;;;;;5040058;28;20037;-72
2023/05/04 03:16:30;;;;;;;1999.90;999.90;;;27.40;71.50;;;;;;5049030;28;20025;-71
2023/05/04 03:18:57;;;;;;;1999.90;999.90;;;27.40;71.70;;;;;;5042989;28;20148;-72
2023/05/04 03:21:25;;;;;;;1999.90;999.90;;;27.30;71.20;;;;;;5041622;28;20025;-71
2023/05/04 03:23:52;;;;;;;1999.90;999.90;;;27.10;70.80;;;;;;5044131;28;20041;-72
2023/05/04 03:26:20;;;;;;;1999.90;999.90;;;26.90;71.20;;;;;;5046320;28;20028;-70
2023/05/04 03:28:47;;;;;;;1999.90;999.90;;;26.70;72.20;;;;;;5052357;28;20394;-70
2023/05/04 03:31:15;;;;;;;1999.90;999.90;;;26.30;72.40;;;;;;5054845;28;20090;-70
2023/05/04 03:33:42;;;;;;;1999.90;999.90;;;26.20;72.80;;;;;;5045859;28;20029;-69
2023/05/04 03:36:09;;;;;;;1999.90;999.90;;;26.00;73.10;;;;;;5042366;28;20029;-70
2023/05/04 03:38:36;;;;;;;1999.90;999.90;;;25.70;73.30;;;;;;5041050;28;20029;-71
2023/05/04 03:41:04;;;;;;;1999.90;999.90;;;25.30;73.70;;;;;;5035864;28;20041;-70
2023/05/04 03:43:31;;;;;;;1999.90;999.90;;;24.80;74.00;;;;;;5042480;28;20029;-70
2023/05/04 03:45:58;;;;;;;1999.90;999.90;;;24.40;74.70;;;;;;5039277;28;20033;-70
2023/05/04 03:48:26;;;;;;;1999.90;999.90;;;24.00;75.70;;;;;;5044299;28;20582;-70
2023/05/04 03:50:53;;;;;;;1999.90;999.90;;;23.50;75.80;;;;;;5035457;28;21729;-70
2023/05/04 03:53:21;;;;;;;1999.90;999.90;;;23.20;77.20;;;;;;5038801;28;20041;-70
2023/05/04 03:55:48;;;;;;;1999.90;999.90;;;23.00;77.40;;;;;;5037941;28;20048;-71
2023/05/04 03:58:15;;;;;;;1999.90;999.90;;;23.00;78.80;;;;;;5041088;28;20040;-71
2023/05/04 04:00:43;;;;;;;1999.90;999.90;;;23.30;78.10;;;;;;5034270;28;20034;-71
2023/05/04 04:03:10;;;;;;;1999.90;999.90;;;23.50;77.80;;;;;;5038898;28;20091;-70
2023/05/04 04:05:37;;;;;;;1999.90;999.90;;;23.90;76.90;;;;;;5044320;28;20507;-69
2023/05/04 04:08:05;;;;;;;1999.90;999.90;;;23.80;76.50;;;;;;5047558;28;20029;-71
2023/05/04 04:10:34;;;;;;;1999.90;999.90;;;23.60;77.50;;;;;;5048233;28;20048;-70
2023/05/04 04:13:01;;;;;;;1999.90;999.90;;;23.30;77.00;;;;;;5042149;28;20035;-71
2023/05/04 04:15:29;;;;;;;1999.90;999.90;;;22.90;77.60;;;;;;5041686;28;20029;-72
2023/05/04 04:17:56;;;;;;;1999.90;999.90;;;22.70;77.90;;;;;;5036023;28;20021;-71
2023/05/04 04:20:23;;;;;;;1999.90;999.90;;;22.50;78.40;;;;;;5037099;28;20021;-72
2023/05/04 04:22:51;;;;;;;1999.90;999.90;;;22.40;79.90;;;;;;5039265;28;20064;-72
2023/05/04 04:25:18;;;;;;;1999.90;999.90;;;22.30;79.20;;;;;;5038548;28;20021;-72
2023/05/04 04:27:45;;;;;;;1999.90;999.90;;;22.30;78.70;;;;;;5046920;28;20037;-71
2023/05/04 04:30:13;;;;;;;1999.90;999.90;;;22.30;78.80;;;;;;5045660;28;20036;-72
2023/05/04 04:32:40;;;;;;;1999.90;999.90;;;22.30;79.30;;;;;;5045052;28;20048;-70
2023/05/04 04:35:08;;;;;;;1999.90;999.90;;;22.30;79.60;;;;;;5033580;28;20505;-72
2023/05/04 04:37:36;;;;;;;1999.90;999.90;;;22.40;80.60;;;;;;5038601;28;20048;-72
2023/05/04 04:40:05;;;;;;;1999.90;999.90;;;22.50;80.40;;;;;;5041363;28;20051;-72
2023/05/04 04:42:33;;;;;;;1999.90;999.90;;;22.60;80.00;;;;;;5044901;28;20033;-71
2023/05/04 04:45:04;;;;;;;1999.90;999.90;;;22.80;79.50;;;;;;5055499;28;20044;-71
2023/05/04 04:47:32;;;;;;;1999.90;999.90;;;22.80;79.50;;;;;;5040331;28;20040;-70
2023/05/04 04:50:00;;;;;;;1999.90;999.90;;;22.90;79.40;;;;;;5033521;28;20039;-71
2023/05/04 04:52:27;;;;;;;1999.90;999.90;;;22.90;79.60;;;;;;5054407;28;20479;-71
2023/05/04 04:54:55;;;;;;;1999.90;999.90;;;23.00;79.20;;;;;;5048337;28;20059;-72
2023/05/04 04:57:22;;;;;;;1999.90;999.90;;;23.00;79.80;;;;;;5056097;28;20415;-71
2023/05/04 04:59:50;;;;;;;1999.90;999.90;;;23.00;79.60;;;;;;5041894;28;20034;-72
2023/05/04 05:02:18;;;;;;;1999.90;999.90;;;23.00;80.20;;;;;;5043078;28;20036;-72
2023/05/04 05:04:46;;;;;;;1999.90;999.90;;;23.00;79.50;;;;;;5033986;28;20025;-75
2023/05/04 05:07:15;;;;;;;1999.90;999.90;;;23.00;79.80;;;;;;5028434;28;20033;-72
2023/05/04 05:09:43;;;;;;;1999.90;999.90;;;23.00;80.30;;;;;;5039079;28;20052;-72
2023/05/04 05:12:10;;;;;;;1999.90;999.90;;;23.00;80.90;;;;;;5049192;28;20032;-71
2023/05/04 05:14:37;;;;;;;1999.90;999.90;;;22.90;80.70;;;;;;5040379;28;20044;-71
2023/05/04 05:17:05;;;;;;;1999.90;999.90;;;22.90;80.50;;;;;;5054182;28;20024;-71
2023/05/04 05:19:35;;;;;;;1999.90;999.90;;;22.80;80.70;;;;;;5052736;28;20029;-71
2023/05/04 05:22:07;;;;;;;1999.90;999.90;;;22.60;80.80;;;;;;5040096;28;20028;-71
2023/05/04 05:24:34;;;;;;;1999.90;999.90;;;22.50;80.30;;;;;;5041510;28;20388;-70
2023/05/04 05:27:02;;;;;;;1999.90;999.90;;;22.40;80.50;;;;;;5051836;28;20045;-71
2023/05/04 05:29:30;;;;;;;1999.90;999.90;;;22.30;80.90;;;;;;5039338;28;20033;-73
2023/05/04 05:31:57;;;;;;;1999.90;999.90;;;22.20;81.50;;;;;;5041776;28;20106;-70
2023/05/04 05:34:26;;;;;;;1999.90;999.90;;;22.20;81.20;;;;;;5035950;28;20024;-71
2023/05/04 05:36:54;;;;;;;1999.90;999.90;;;22.30;81.60;;;;;;5045817;28;20044;-71
2023/05/04 05:39:21;;;;;;;1999.90;999.90;;;22.30;80.50;;;;;;5036597;28;20038;-71
2023/05/04 05:41:48;;;;;;;1999.90;999.90;;;22.20;79.50;;;;;;5040219;28;20081;-71
2023/05/04 05:44:16;;;;;;;1999.90;999.90;;;22.10;81.30;;;;;;5053941;28;20028;-72
2023/05/04 05:46:43;;;;;;;1999.90;999.90;;;22.20;81.50;;;;;;5052648;28;20040;-70
2023/05/04 05:49:17;;;;;;;1999.90;999.90;;;22.20;81.20;;;;;;5039327;28;20033;-68
2023/05/04 05:51:45;;;;;;;1999.90;999.90;;;22.30;81.20;;;;;;5039231;28;20443;-70
2023/05/04 05:54:13;;;;;;;1999.90;999.90;;;22.30;81.20;;;;;;5036867;28;20108;-71
2023/05/04 05:56:40;;;;;;;1999.90;999.90;;;22.40;81.10;;;;;;5041312;28;20029;-73
2023/05/04 05:59:07;;;;;;;1999.90;999.90;;;22.40;81.50;;;;;;5041489;28;20029;-72
2023/05/04 06:01:35;;;;;;;1999.90;999.90;;;22.50;81.70;;;;;;5050778;28;20384;-71
2023/05/04 06:04:02;;;;;;;1999.90;999.90;;;22.50;81.50;;;;;;5051018;28;20009;-70
2023/05/04 06:06:32;;;;;;;1999.90;999.90;;;22.50;81.60;;;;;;5054035;28;20033;-71
2023/05/04 06:09:00;;;;;;;1999.90;999.90;;;22.40;81.50;;;;;;5038760;28;20146;-70
2023/05/04 06:11:28;;;;;;;1999.90;999.90;;;22.40;81.20;;;;;;5046996;28;21312;-70
2023/05/04 06:13:55;;;;;;;1999.90;999.90;;;22.40;81.00;;;;;;5035218;28;20029;-70
2023/05/04 06:16:23;;;;;;;1999.90;999.90;;;22.40;82.60;;;;;;5045945;28;20033;-69
2023/05/04 06:18:50;;;;;;;1999.90;999.90;;;22.40;81.20;;;;;;5034388;28;20239;-70
2023/05/04 06:21:18;;;;;;;1999.90;999.90;;;22.40;81.30;;;;;;5037861;28;20041;-70
2023/05/04 06:23:45;;;;;;;1999.90;999.90;;;22.30;81.40;;;;;;5044413;28;20119;-69
2023/05/04 06:26:13;;;;;;;1999.90;999.90;;;22.20;81.50;;;;;;5037396;28;20025;-71
2023/05/04 06:28:40;;;;;;;1999.90;999.90;;;22.10;81.60;;;;;;5044297;28;20037;-71
2023/05/04 06:31:07;;;;;;;1999.90;999.90;;;21.90;81.90;;;;;;5030039;28;20128;-71
2023/05/04 06:33:35;;;;;;;1999.90;999.90;;;21.90;82.30;;;;;;5040494;28;20033;-70
2023/05/04 06:36:05;;;;;;;1999.90;999.90;;;21.70;82.60;;;;;;5033028;28;20480;-72
2023/05/04 06:38:32;;;;;;;1999.90;999.90;;;21.50;82.90;;;;;;5045049;28;20036;-71
2023/05/04 06:40:59;;;;;;;1999.90;999.90;;;21.30;83.20;;;;;;5032257;28;20513;-70
2023/05/04 06:43:27;;;;;;;1999.90;999.90;;;21.10;83.80;;;;;;5051520;28;20115;-70
2023/05/04 06:45:55;;;;;;;1999.90;999.90;;;21.10;83.70;;;;;;5038276;28;20875;-72
2023/05/04 06:48:22;;;;;;;1999.90;999.90;;;21.00;84.40;;;;;;5053954;28;20070;-72
2023/05/04 06:50:49;;;;;;;1999.90;999.90;;;21.00;83.70;;;;;;5041757;28;20070;-70
2023/05/04 06:53:17;;;;;;;1999.90;999.90;;;20.90;83.80;;;;;;5040740;28;20068;-70
2023/05/04 06:55:45;;;;;;;1999.90;999.90;;;20.80;84.40;;;;;;5047872;28;20395;-72
2023/05/04 06:58:12;;;;;;;1999.90;999.90;;;20.70;84.40;;;;;;5051267;28;20086;-73
2023/05/04 07:00:42;;;;;;;1999.90;999.90;;;20.60;85.00;;;;;;5046671;28;20039;-71
2023/05/04 07:03:09;;;;;;;1999.90;999.90;;;20.50;85.40;;;;;;5052646;28;20024;-72
2023/05/04 07:05:37;;;;;;;1999.90;999.90;;;20.40;86.00;;;;;;5047962;28;20117;-71
2023/05/04 07:08:05;;;;;;;1999.90;999.90;;;20.20;86.90;;;;;;5044697;28;20107;-71
2023/05/04 07:10:32;;;;;;;1999.90;999.90;;;20.10;87.50;;;;;;5050227;28;20087;-70
2023/05/04 07:13:00;;;;;;;1999.90;999.90;;;20.00;88.20;;;;;;5054736;28;20115;-72
2023/05/04 07:18:12;;;;;;;1999.90;999.90;;;19.90;88.60;;;;;;5069078;27;20403;-69
2023/05/04 07:20:41;;;;;;;1999.90;999.90;;;19.80;89.90;;;;;;5061040;28;20029;-70
2023/05/04 07:23:09;;;;;;;1999.90;999.90;;;19.70;90.00;;;;;;5062775;28;20034;-70
2023/05/04 07:25:36;;;;;;;1999.90;999.90;;;19.60;90.30;;;;;;5060221;28;20068;-69
2023/05/04 07:28:04;;;;;;;1999.90;999.90;;;19.50;90.40;;;;;;5062198;28;20024;-69
2023/05/04 07:30:31;;;;;;;1999.90;999.90;;;19.50;90.60;;;;;;5064646;28;20146;-70
2023/05/04 07:32:58;;;;;;;1999.90;999.90;;;19.40;90.80;;;;;;5059032;28;20017;-69
2023/05/04 07:35:26;;;;;;;1999.90;999.90;;;19.30;90.90;;;;;;5059809;28;20410;-70
2023/05/04 07:37:53;;;;;;;1999.90;999.90;;;19.20;91.20;;;;;;5065472;28;20050;-71
2023/05/04 07:40:20;;;;;;;1999.90;999.90;;;19.10;91.40;;;;;;5061926;28;20513;-70
2023/05/04 07:42:48;;;;;;;1999.90;999.90;;;19.00;91.50;;;;;;5070965;28;20029;-69
2023/05/04 07:45:16;;;;;;;1999.90;999.90;;;18.90;91.80;;;;;;5064726;28;20033;-69
2023/05/04 07:47:43;;;;;;;1999.90;999.90;;;18.90;92.10;;;;;;5063879;28;20042;-71
2023/05/04 07:50:11;;;;;;;1999.90;999.90;;;18.80;92.30;;;;;;5063562;28;20555;-68
2023/05/04 07:52:39;;;;;;;1999.90;999.90;;;18.80;92.40;;;;;;5066936;28;20491;-70
2023/05/04 07:55:07;;;;;;;1999.90;999.90;;;18.70;92.80;;;;;;5061007;28;20484;-68
2023/05/04 07:57:36;;;;;;;1999.90;999.90;;;18.60;92.80;;;;;;5065602;28;20436;-69
